createdAt,value
2018-05-31T00:00:11.998Z,16.92
2018-05-31T00:02:38.598Z,14.60
2018-05-31T00:05:05.226Z,15.93
2018-05-31T00:07:39.170Z,18.00
2018-05-31T00:10:05.775Z,15.48
2018-05-31T00:12:32.369Z,15.60
2018-05-31T00:14:58.985Z,14.77
2018-05-31T00:17:25.554Z,15.10
2018-05-31T00:19:52.165Z,14.93
2018-05-31T00:22:18.808Z,15.05
2018-05-31T00:24:45.412Z,15.93
2018-05-31T00:27:12.016Z,14.65
2018-05-31T00:29:38.645Z,14.38
2018-05-31T00:32:05.260Z,13.15
2018-05-31T00:34:31.873Z,14.85
2018-05-31T00:36:58.453Z,15.25
2018-05-31T00:39:25.073Z,14.20
2018-05-31T00:41:51.642Z,13.73
2018-05-31T00:44:18.670Z,14.98
2018-05-31T00:46:45.360Z,15.20
2018-05-31T00:49:11.937Z,15.00
2018-05-31T00:51:38.585Z,13.15
2018-05-31T00:54:05.192Z,14.43
2018-05-31T00:56:32.169Z,14.95
2018-05-31T00:58:58.741Z,14.80
2018-05-31T01:01:25.361Z,14.98
2018-05-31T01:03:51.952Z,14.95
2018-05-31T01:06:18.593Z,14.10
2018-05-31T01:08:45.265Z,14.17
2018-05-31T01:11:12.220Z,14.25
2018-05-31T01:13:38.833Z,13.80
2018-05-31T01:16:05.432Z,13.43
2018-05-31T01:18:32.385Z,13.40
2018-05-31T01:20:59.372Z,11.70
2018-05-31T01:23:25.950Z,14.57
2018-05-31T01:25:52.582Z,13.18
2018-05-31T01:28:19.235Z,12.00
2018-05-31T01:30:45.929Z,13.70
2018-05-31T01:33:12.945Z,12.60
2018-05-31T01:35:39.510Z,12.85
2018-05-31T01:38:18.273Z,14.60
2018-05-31T01:40:45.289Z,12.07
2018-05-31T01:43:11.905Z,13.00
2018-05-31T01:45:38.542Z,13.48
2018-05-31T01:48:05.486Z,14.20
2018-05-31T01:50:32.088Z,13.90
2018-05-31T01:52:58.648Z,12.20
2018-05-31T01:55:25.254Z,12.80
2018-05-31T01:57:52.222Z,12.30
2018-05-31T02:00:18.849Z,12.48
2018-05-31T02:02:45.878Z,13.02
2018-05-31T02:05:12.445Z,11.70
2018-05-31T02:07:39.429Z,11.60
2018-05-31T02:10:06.427Z,11.80
2018-05-31T02:12:33.037Z,11.30
2018-05-31T02:14:59.657Z,11.00
2018-05-31T02:17:26.238Z,9.68
2018-05-31T02:19:53.177Z,9.77
2018-05-31T02:22:19.784Z,10.13
2018-05-31T02:24:46.361Z,10.35
2018-05-31T02:27:12.953Z,11.38
2018-05-31T02:29:39.541Z,10.73
2018-05-31T02:32:06.554Z,10.07
2018-05-31T02:34:33.118Z,9.65
2018-05-31T02:36:59.725Z,9.45
2018-05-31T02:39:26.368Z,11.07
2018-05-31T02:41:52.981Z,11.38
2018-05-31T02:44:19.569Z,9.73
2018-05-31T02:46:46.174Z,10.77
2018-05-31T02:49:12.737Z,10.02
2018-05-31T02:51:39.338Z,9.93
2018-05-31T02:54:05.939Z,9.63
2018-05-31T02:56:32.548Z,9.10
2018-05-31T02:58:59.149Z,9.57
2018-05-31T03:01:25.729Z,10.60
2018-05-31T03:03:52.342Z,10.53
2018-05-31T03:06:18.945Z,10.10
2018-05-31T03:08:45.953Z,8.98
2018-05-31T03:11:12.557Z,9.35
2018-05-31T03:13:39.155Z,10.10
2018-05-31T03:16:06.142Z,10.00
2018-05-31T03:18:32.704Z,10.25
2018-05-31T03:20:59.308Z,9.30
2018-05-31T03:23:25.922Z,10.80
2018-05-31T03:25:52.507Z,10.90
2018-05-31T03:28:19.116Z,10.60
2018-05-31T03:30:45.711Z,9.82
2018-05-31T03:33:12.364Z,9.60
2018-05-31T03:35:38.970Z,9.43
2018-05-31T03:38:05.551Z,10.40
2018-05-31T03:40:32.525Z,10.00
2018-05-31T03:42:59.098Z,10.30
2018-05-31T03:45:25.708Z,10.80
2018-05-31T03:47:52.297Z,10.50
2018-05-31T03:50:18.873Z,11.32
2018-05-31T03:52:45.489Z,9.90
2018-05-31T03:55:12.056Z,10.38
2018-05-31T03:57:38.641Z,9.07
2018-05-31T04:00:06.173Z,11.45
2018-05-31T04:02:32.740Z,11.98
2018-05-31T04:04:59.368Z,10.60
2018-05-31T04:07:26.329Z,11.50
2018-05-31T04:09:53.298Z,11.13
2018-05-31T04:12:20.273Z,9.50
2018-05-31T04:14:47.214Z,10.85
2018-05-31T04:17:13.852Z,11.15
2018-05-31T04:19:40.448Z,10.07
2018-05-31T04:22:07.425Z,9.30
2018-05-31T04:24:34.392Z,9.30
2018-05-31T04:27:00.955Z,9.27
2018-05-31T04:29:27.916Z,9.20
2018-05-31T04:31:54.518Z,10.82
2018-05-31T04:34:21.125Z,9.60
2018-05-31T04:36:47.741Z,10.33
2018-05-31T04:39:14.329Z,11.20
2018-05-31T04:41:40.933Z,9.88
2018-05-31T04:44:07.869Z,10.40
2018-05-31T04:46:34.493Z,10.60
2018-05-31T04:49:01.109Z,9.38
2018-05-31T04:51:27.686Z,9.63
2018-05-31T04:53:54.662Z,9.33
2018-05-31T04:56:21.593Z,8.75
2018-05-31T04:58:48.196Z,9.32
2018-05-31T05:01:14.830Z,9.02
2018-05-31T05:03:41.770Z,9.23
2018-05-31T05:06:08.374Z,8.80
2018-05-31T05:08:35.304Z,8.90
2018-05-31T05:11:01.919Z,9.20
2018-05-31T05:13:28.533Z,7.78
2018-05-31T05:15:55.502Z,9.63
2018-05-31T05:18:22.109Z,10.70
2018-05-31T05:20:48.677Z,9.90
2018-05-31T05:23:15.308Z,10.40
2018-05-31T05:25:42.276Z,9.60
2018-05-31T05:28:09.205Z,9.90
2018-05-31T05:30:35.897Z,9.68
2018-05-31T05:33:02.542Z,9.50
2018-05-31T05:35:29.233Z,9.75
2018-05-31T05:37:56.208Z,9.27
2018-05-31T05:40:23.150Z,9.55
2018-05-31T05:42:49.741Z,9.65
2018-05-31T05:45:16.694Z,9.85
2018-05-31T05:47:43.676Z,10.55
2018-05-31T05:50:10.370Z,9.90
2018-05-31T05:52:37.305Z,10.27
2018-05-31T05:55:04.284Z,10.90
2018-05-31T05:57:30.845Z,11.23
2018-05-31T05:59:57.457Z,11.00
2018-05-31T06:02:24.054Z,10.48
2018-05-31T06:04:50.993Z,11.40
2018-05-31T06:07:17.609Z,10.67
2018-05-31T06:09:44.242Z,10.85
2018-05-31T06:12:11.241Z,10.48
2018-05-31T06:14:37.849Z,9.70
2018-05-31T06:17:04.421Z,11.10
2018-05-31T06:19:31.034Z,10.73
2018-05-31T06:21:57.622Z,9.10
2018-05-31T06:24:24.230Z,9.70
2018-05-31T06:26:51.199Z,10.30
2018-05-31T06:29:17.765Z,10.10
2018-05-31T06:31:44.379Z,8.97
2018-05-31T06:34:10.957Z,10.35
2018-05-31T06:36:37.956Z,10.45
2018-05-31T06:39:05.059Z,9.80
2018-05-31T06:41:31.627Z,9.40
2018-05-31T06:43:58.212Z,10.30
2018-05-31T06:46:24.778Z,10.63
2018-05-31T06:48:51.377Z,11.18
2018-05-31T06:51:17.977Z,10.23
2018-05-31T06:53:44.541Z,10.70
2018-05-31T06:56:11.125Z,10.38
2018-05-31T06:58:37.689Z,9.55
2018-05-31T07:01:04.305Z,10.57
2018-05-31T07:03:30.901Z,11.50
2018-05-31T07:05:57.483Z,11.45
2018-05-31T07:08:24.446Z,10.55
2018-05-31T07:10:57.852Z,10.93
2018-05-31T07:13:24.443Z,11.55
2018-05-31T07:15:51.362Z,11.50
2018-05-31T07:18:17.909Z,9.70
2018-05-31T07:20:44.825Z,11.07
2018-05-31T07:23:11.778Z,11.30
2018-05-31T07:25:45.505Z,10.40
2018-05-31T07:28:12.129Z,11.10
2018-05-31T07:30:38.689Z,11.82
2018-05-31T07:33:05.306Z,11.40
2018-05-31T07:35:38.798Z,11.85
2018-05-31T07:38:05.445Z,12.60
2018-05-31T07:40:32.040Z,13.07
2018-05-31T07:42:58.601Z,12.10
2018-05-31T07:45:25.201Z,12.57
2018-05-31T07:47:51.773Z,13.45
2018-05-31T07:50:18.382Z,12.75
2018-05-31T07:52:44.995Z,13.30
2018-05-31T07:55:11.564Z,15.00
2018-05-31T07:57:38.172Z,13.77
2018-05-31T08:00:05.167Z,12.57
2018-05-31T08:02:31.781Z,15.55
2018-05-31T08:04:58.389Z,14.80
2018-05-31T08:07:24.950Z,13.80
2018-05-31T08:09:51.540Z,15.15
2018-05-31T08:12:18.111Z,16.10
2018-05-31T08:14:44.697Z,15.60
2018-05-31T08:17:11.689Z,15.60
2018-05-31T08:19:38.270Z,14.55
2018-05-31T08:22:04.898Z,13.45
2018-05-31T08:24:31.839Z,15.15
2018-05-31T08:26:58.438Z,14.40
2018-05-31T08:29:25.413Z,15.10
2018-05-31T08:31:58.991Z,17.20
2018-05-31T08:34:25.589Z,15.13
2018-05-31T08:36:52.242Z,14.35
2018-05-31T08:39:19.277Z,16.97
2018-05-31T08:41:45.927Z,15.93
2018-05-31T08:44:12.712Z,16.23
2018-05-31T08:46:39.271Z,16.12
2018-05-31T08:49:05.845Z,18.35
2018-05-31T08:51:32.472Z,16.37
2018-05-31T08:53:59.020Z,17.95
2018-05-31T08:56:25.614Z,17.58
2018-05-31T08:58:52.226Z,17.77
2018-05-31T09:01:18.793Z,19.02
2018-05-31T09:03:45.388Z,18.40
2018-05-31T09:06:11.975Z,18.30
2018-05-31T09:08:38.973Z,16.37
2018-05-31T09:11:05.570Z,18.77
2018-05-31T09:13:32.139Z,18.60
2018-05-31T09:15:58.769Z,18.75
2018-05-31T09:18:25.317Z,16.05
2018-05-31T09:20:51.912Z,19.65
2018-05-31T09:23:18.523Z,19.40
2018-05-31T09:25:45.090Z,18.90
2018-05-31T09:28:11.700Z,18.40
2018-05-31T09:30:38.258Z,18.52
2018-05-31T09:33:04.853Z,17.58
2018-05-31T09:35:31.814Z,18.20
2018-05-31T09:37:58.746Z,15.83
2018-05-31T09:40:25.345Z,17.60
2018-05-31T09:42:51.890Z,18.90
2018-05-31T09:45:18.539Z,14.55
2018-05-31T09:47:45.150Z,16.50
2018-05-31T09:50:11.709Z,17.67
2018-05-31T09:52:38.309Z,18.60
2018-05-31T09:55:04.858Z,15.20
2018-05-31T09:57:31.437Z,15.63
2018-05-31T09:59:58.034Z,17.42
2018-05-31T10:02:24.965Z,17.35
2018-05-31T10:04:51.566Z,15.35
2018-05-31T10:07:18.129Z,18.20
2018-05-31T10:09:45.101Z,15.40
2018-05-31T10:12:11.698Z,17.42
2018-05-31T10:14:38.248Z,18.98
2018-05-31T10:17:04.906Z,19.30
2018-05-31T10:19:31.476Z,17.90
2018-05-31T10:21:58.069Z,20.30
2018-05-31T10:24:24.679Z,15.90
2018-05-31T10:26:51.253Z,16.15
2018-05-31T10:29:17.844Z,18.90
2018-05-31T10:31:44.426Z,19.52
2018-05-31T10:34:11.386Z,17.37
2018-05-31T10:36:38.010Z,17.05
2018-05-31T10:39:05.573Z,19.15
2018-05-31T10:41:32.173Z,18.08
2018-05-31T10:43:58.735Z,20.77
2018-05-31T10:46:25.389Z,16.23
2018-05-31T10:48:51.993Z,18.37
2018-05-31T10:51:18.926Z,14.02
2018-05-31T10:53:45.643Z,13.30
2018-05-31T10:56:12.210Z,13.53
2018-05-31T10:58:38.813Z,14.93
2018-05-31T11:01:05.422Z,16.10
2018-05-31T11:03:32.005Z,15.32
2018-05-31T11:05:58.605Z,13.23
2018-05-31T11:08:25.172Z,13.05
2018-05-31T11:10:51.769Z,16.08
2018-05-31T11:13:18.386Z,12.33
2018-05-31T11:15:44.957Z,13.27
2018-05-31T11:18:18.989Z,16.40
2018-05-31T11:20:45.553Z,15.82
2018-05-31T11:23:12.521Z,15.10
2018-05-31T11:25:39.089Z,11.25
2018-05-31T11:28:06.021Z,10.27
2018-05-31T11:30:32.625Z,11.83
2018-05-31T11:32:59.565Z,13.00
2018-05-31T11:35:26.161Z,15.38
2018-05-31T11:37:52.730Z,14.37
2018-05-31T11:40:19.314Z,12.77
2018-05-31T11:42:45.921Z,14.70
2018-05-31T11:45:12.921Z,12.20
2018-05-31T11:47:39.521Z,12.40
2018-05-31T11:50:06.105Z,11.10
2018-05-31T11:52:33.086Z,9.88
2018-05-31T11:55:00.057Z,9.75
2018-05-31T11:57:26.620Z,8.65
2018-05-31T11:59:53.238Z,10.37
2018-05-31T12:02:19.794Z,11.88
2018-05-31T12:04:46.399Z,11.88
2018-05-31T12:07:13.037Z,13.18
2018-05-31T12:09:39.603Z,13.35
2018-05-31T12:12:06.227Z,11.70
2018-05-31T12:14:32.811Z,8.88
2018-05-31T12:16:59.425Z,13.85
2018-05-31T12:19:25.990Z,13.77
2018-05-31T12:21:52.581Z,11.23
2018-05-31T12:24:19.176Z,11.48
2018-05-31T12:26:46.101Z,8.63
2018-05-31T12:29:12.734Z,10.77
2018-05-31T12:31:39.294Z,13.60
2018-05-31T12:34:05.889Z,11.33
2018-05-31T12:36:32.489Z,11.30
2018-05-31T12:38:59.421Z,12.70
2018-05-31T12:41:26.025Z,9.70
2018-05-31T12:43:52.949Z,9.60
2018-05-31T12:46:19.582Z,12.85
2018-05-31T12:48:46.186Z,13.00
2018-05-31T12:51:12.754Z,12.55
2018-05-31T12:53:39.398Z,14.50
2018-05-31T12:56:05.946Z,14.48
2018-05-31T12:58:32.573Z,11.10
2018-05-31T13:00:59.170Z,14.85
2018-05-31T13:03:25.744Z,16.20
2018-05-31T13:05:52.403Z,11.95
2018-05-31T13:08:18.950Z,12.15
2018-05-31T13:10:46.475Z,10.45
2018-05-31T13:13:13.078Z,9.52
2018-05-31T13:15:39.668Z,9.30
2018-05-31T13:18:06.293Z,10.48
2018-05-31T13:20:32.853Z,9.30
2018-05-31T13:22:59.492Z,8.07
2018-05-31T13:25:26.113Z,8.27
2018-05-31T13:27:52.694Z,8.30
2018-05-31T13:30:19.661Z,8.60
2018-05-31T13:32:46.618Z,8.73
2018-05-31T13:35:13.245Z,9.38
2018-05-31T13:37:40.230Z,9.80
2018-05-31T13:40:06.838Z,8.50
2018-05-31T13:42:33.445Z,7.50
2018-05-31T13:45:00.005Z,8.65
2018-05-31T13:47:33.712Z,8.00
2018-05-31T13:50:00.278Z,8.50
2018-05-31T13:52:26.892Z,6.78
2018-05-31T13:54:53.873Z,7.25
2018-05-31T13:57:20.809Z,7.90
2018-05-31T13:59:47.401Z,7.90
2018-05-31T14:02:14.331Z,8.32
2018-05-31T14:04:40.937Z,8.48
2018-05-31T14:07:07.545Z,6.60
2018-05-31T14:09:34.169Z,6.90
2018-05-31T14:12:01.154Z,7.57
2018-05-31T14:14:27.717Z,8.57
2018-05-31T14:16:54.338Z,8.57
2018-05-31T14:19:20.936Z,8.85
2018-05-31T14:21:47.870Z,8.10
2018-05-31T14:24:14.477Z,8.02
2018-05-31T14:26:41.061Z,7.32
2018-05-31T14:29:07.738Z,6.30
2018-05-31T14:31:34.346Z,6.72
2018-05-31T14:34:01.295Z,7.20
2018-05-31T14:36:27.890Z,7.90
2018-05-31T14:38:54.450Z,8.00
2018-05-31T14:41:21.081Z,6.72
2018-05-31T14:43:48.058Z,7.70
2018-05-31T14:46:14.651Z,7.30
2018-05-31T14:48:41.241Z,7.10
2018-05-31T14:51:07.798Z,7.00
2018-05-31T14:53:34.409Z,7.85
2018-05-31T14:56:01.341Z,7.30
2018-05-31T14:58:27.969Z,7.53
2018-05-31T15:00:54.569Z,7.10
2018-05-31T15:03:21.134Z,7.05
2018-05-31T15:05:47.753Z,8.00
2018-05-31T15:08:14.362Z,6.95
2018-05-31T15:10:41.336Z,6.28
2018-05-31T15:13:08.329Z,6.07
2018-05-31T15:15:34.885Z,6.00
2018-05-31T15:18:01.497Z,6.07
2018-05-31T15:20:28.062Z,5.87
2018-05-31T15:22:54.664Z,6.10
2018-05-31T15:25:21.278Z,6.25
2018-05-31T15:27:47.846Z,5.80
2018-05-31T15:30:14.469Z,5.10
2018-05-31T15:32:41.037Z,5.65
2018-05-31T15:35:07.637Z,5.45
2018-05-31T15:37:34.232Z,5.87
2018-05-31T15:40:00.780Z,6.30
2018-05-31T15:42:27.747Z,6.50
2018-05-31T15:45:01.250Z,6.28
2018-05-31T15:47:27.881Z,5.90
2018-05-31T15:49:54.474Z,7.12
2018-05-31T15:54:54.490Z,7.20
2018-05-31T15:57:21.073Z,7.93
2018-05-31T15:59:47.689Z,8.45
2018-05-31T16:02:14.690Z,8.68
2018-05-31T16:04:41.265Z,7.85
2018-05-31T16:07:07.870Z,9.18
2018-05-31T16:09:34.818Z,8.98
2018-05-31T16:12:01.442Z,8.80
2018-05-31T16:14:28.051Z,9.10
2018-05-31T16:16:54.633Z,8.10
2018-05-31T16:19:21.645Z,7.90
2018-05-31T16:21:48.266Z,8.57
2018-05-31T16:24:14.876Z,7.50
2018-05-31T16:26:41.509Z,8.02
2018-05-31T16:29:08.078Z,7.75
2018-05-31T16:31:34.702Z,8.48
2018-05-31T16:34:01.671Z,8.68
2018-05-31T16:36:28.665Z,8.20
2018-05-31T16:38:55.262Z,9.98
2018-05-31T16:41:21.832Z,9.35
2018-05-31T16:43:48.789Z,9.55
2018-05-31T16:46:15.757Z,9.73
2018-05-31T16:48:42.378Z,9.70
2018-05-31T16:51:08.939Z,10.02
2018-05-31T16:53:35.530Z,10.18
2018-05-31T16:56:02.137Z,9.90
2018-05-31T16:58:29.074Z,8.93
2018-05-31T17:00:55.673Z,9.20
2018-05-31T17:03:22.609Z,10.20
2018-05-31T17:05:49.205Z,9.52
2018-05-31T17:08:16.189Z,9.88
2018-05-31T17:10:42.753Z,8.52
2018-05-31T17:13:09.353Z,9.18
2018-05-31T17:15:35.917Z,7.85
2018-05-31T17:18:02.518Z,8.60
2018-05-31T17:20:29.569Z,9.27
2018-05-31T17:22:56.137Z,8.88
2018-05-31T17:25:23.110Z,9.60
2018-05-31T17:27:50.033Z,10.02
2018-05-31T17:30:16.626Z,10.45
2018-05-31T17:32:43.589Z,10.82
2018-05-31T17:35:10.530Z,5.90
2018-05-31T17:37:37.125Z,5.10
2018-05-31T17:40:03.690Z,5.90
2018-05-31T17:42:30.662Z,6.57
2018-05-31T17:44:57.628Z,8.02
2018-05-31T17:47:24.177Z,8.80
2018-05-31T17:49:51.537Z,8.70
2018-05-31T17:52:18.124Z,9.10
2018-05-31T17:54:44.710Z,9.32
2018-05-31T17:57:11.314Z,9.50
2018-05-31T17:59:38.962Z,9.90
2018-05-31T18:02:05.630Z,8.77
2018-05-31T18:04:32.246Z,9.52
2018-05-31T18:06:58.813Z,9.20
2018-05-31T18:09:25.801Z,8.95
2018-05-31T18:11:52.730Z,10.23
2018-05-31T18:14:19.333Z,8.95
2018-05-31T18:16:45.946Z,8.65
2018-05-31T18:19:12.514Z,8.60
2018-05-31T18:21:39.118Z,8.50
2018-05-31T18:24:05.680Z,10.45
2018-05-31T18:26:32.289Z,12.10
2018-05-31T18:28:58.890Z,12.30
2018-05-31T18:31:25.825Z,9.95
2018-05-31T18:33:52.434Z,8.00
2018-05-31T18:36:19.006Z,8.40
2018-05-31T18:38:45.610Z,7.40
2018-05-31T18:41:12.211Z,8.23
2018-05-31T18:43:38.787Z,7.30
2018-05-31T18:46:05.945Z,7.77
2018-05-31T18:48:32.586Z,7.00
2018-05-31T18:50:59.587Z,7.20
2018-05-31T18:53:26.184Z,6.70
2018-05-31T18:55:52.782Z,6.40
2018-05-31T18:58:19.754Z,5.93
2018-05-31T19:00:46.701Z,6.35
2018-05-31T19:03:13.294Z,5.97
2018-05-31T19:05:39.894Z,5.97
2018-05-31T19:08:06.473Z,6.20
2018-05-31T19:10:33.094Z,5.80
2018-05-31T19:13:05.766Z,5.60
2018-05-31T19:15:32.767Z,6.18
2018-05-31T19:17:59.349Z,6.18
2018-05-31T19:20:25.976Z,6.87
2018-05-31T19:22:52.545Z,6.20
2018-05-31T19:25:21.051Z,5.60
2018-05-31T19:27:47.663Z,6.10
2018-05-31T19:30:20.400Z,6.20
2018-05-31T19:32:47.068Z,5.80
2018-05-31T19:35:19.606Z,5.60
2018-05-31T19:37:46.230Z,6.35
2018-05-31T19:40:12.810Z,5.95
2018-05-31T19:42:45.383Z,5.57
2018-05-31T19:45:12.038Z,6.00
2018-05-31T19:47:39.006Z,5.60
2018-05-31T19:50:06.046Z,6.20
2018-05-31T19:55:33.910Z,6.43
2018-05-31T19:58:07.023Z,7.43
2018-05-31T20:00:39.989Z,7.25
2018-05-31T20:03:12.645Z,6.68
2018-05-31T20:05:40.501Z,5.60
2018-05-31T20:08:07.130Z,6.17
2018-05-31T20:10:33.737Z,5.65
2018-05-31T20:13:00.301Z,6.10
2018-05-31T20:15:26.908Z,5.20
2018-05-31T20:17:53.476Z,4.53
2018-05-31T20:20:20.073Z,3.80
2018-05-31T20:22:46.673Z,3.60
2018-05-31T20:25:13.253Z,3.80
2018-05-31T20:27:39.856Z,3.40
2018-05-31T20:30:06.474Z,3.78
2018-05-31T20:32:33.088Z,4.40
2018-05-31T20:34:59.707Z,4.40
2018-05-31T20:37:26.274Z,4.47
2018-05-31T20:39:52.878Z,4.65
2018-05-31T20:42:19.807Z,4.62
2018-05-31T20:44:46.423Z,4.28
2018-05-31T20:47:13.037Z,4.85
2018-05-31T20:49:39.601Z,5.25
2018-05-31T20:52:06.243Z,5.40
2018-05-31T20:54:32.794Z,4.93
2018-05-31T20:56:59.385Z,4.70
2018-05-31T20:59:25.982Z,5.00
2018-05-31T21:01:52.913Z,5.60
2018-05-31T21:04:19.514Z,5.67
2018-05-31T21:06:46.081Z,4.90
2018-05-31T21:09:12.691Z,4.93
2018-05-31T21:11:39.289Z,6.10
2018-05-31T21:14:05.873Z,6.43
2018-05-31T21:16:32.469Z,6.00
2018-05-31T21:18:59.042Z,5.47
2018-05-31T21:21:25.642Z,6.82
2018-05-31T21:23:52.234Z,6.15
2018-05-31T21:26:18.812Z,7.03
2018-05-31T21:28:45.425Z,7.03
2018-05-31T21:31:11.990Z,6.70
2018-05-31T21:33:38.593Z,6.50
2018-05-31T21:36:05.208Z,6.93
2018-05-31T21:38:31.772Z,6.22
2018-05-31T21:40:58.377Z,7.47
2018-05-31T21:43:24.951Z,6.80
2018-05-31T21:45:51.550Z,7.20
2018-05-31T21:48:18.160Z,7.00
2018-05-31T21:50:44.805Z,7.55
2018-05-31T21:53:11.411Z,6.50
2018-05-31T21:55:38.340Z,6.82
2018-05-31T21:58:05.009Z,6.10
2018-05-31T22:00:37.554Z,7.07
2018-05-31T22:03:04.146Z,6.60
2018-05-31T22:05:30.738Z,6.50
2018-05-31T22:07:57.313Z,7.03
2018-05-31T22:10:24.279Z,5.82
2018-05-31T22:12:51.273Z,6.80
2018-05-31T22:15:17.877Z,6.50
2018-05-31T22:17:44.536Z,6.80
2018-05-31T22:20:11.110Z,7.28
2018-05-31T22:22:37.702Z,6.97
2018-05-31T22:25:04.713Z,6.10
2018-05-31T22:27:31.278Z,7.07
2018-05-31T22:29:57.873Z,6.50
2018-05-31T22:32:24.453Z,6.57
2018-05-31T22:34:51.410Z,7.28
2018-05-31T22:37:18.374Z,6.00
2018-05-31T22:39:45.324Z,5.87
2018-05-31T22:42:11.920Z,7.37
2018-05-31T22:44:38.840Z,6.53
2018-05-31T22:47:05.428Z,8.40
2018-05-31T22:49:32.033Z,7.03
2018-05-31T22:51:58.617Z,7.28
2018-05-31T22:54:25.227Z,6.40
2018-05-31T22:56:52.157Z,7.10
2018-05-31T22:59:18.754Z,7.00
2018-05-31T23:01:45.745Z,6.90
2018-05-31T23:04:12.309Z,6.70
2018-05-31T23:06:38.905Z,6.20
2018-05-31T23:09:05.548Z,6.68
2018-05-31T23:11:32.151Z,7.18
2018-05-31T23:13:58.737Z,6.10
2018-05-31T23:16:25.301Z,6.60
2018-05-31T23:18:51.898Z,7.10
2018-05-31T23:21:18.458Z,5.97
2018-05-31T23:23:45.053Z,6.50
2018-05-31T23:26:11.649Z,6.95
2018-05-31T23:28:38.217Z,7.37
2018-05-31T23:31:04.837Z,6.80
2018-05-31T23:33:31.390Z,7.35
2018-05-31T23:35:57.975Z,6.35
2018-05-31T23:38:24.933Z,7.12
2018-05-31T23:40:51.481Z,6.35
2018-05-31T23:43:18.093Z,6.07
2018-05-31T23:45:44.699Z,7.03
2018-05-31T23:48:11.301Z,6.40
2018-05-31T23:50:37.953Z,7.20
2018-05-31T23:53:04.593Z,6.90
2018-05-31T23:55:31.250Z,7.00
2018-05-31T23:57:57.861Z,6.70
